Flight Track Log - Related Links

Times and Time Zones

All times are in EDT time to prevent confusion due to time zone crossing. See the AWE478 flight status page for this flight to view local times or setup timezone preferences in your user account.

Time Position Orientation Groundspeed Altitude Reporting Facility
EDT Latitude Longitude Course Direction KTS MPH feet Rate Location/Type
Fri 04:13:39 PM 36.0761 -115.1789 93° East 184 212 3,400  Level Los Center
Fri 04:14:03 PM 36.0750 -115.2031 267° West 184 212 3,800 1,412 Climbing Los Center
Fri 04:15:04 PM 36.0878 -115.2814 281° West 260 299 5,400 1,765 Climbing Los Center
Fri 04:15:11 PM 36.0969 -115.2856 340° North 246 283 5,800 2,656 Climbing Los Center
Fri 04:16:00 PM 36.1834 -115.0278 90° East  Level FlightAware
Fri 04:16:05 PM 36.1606 -115.2789 North 277 319 8,100  Level Los Center
Fri 04:16:13 PM 36.1642 -115.2731 53° Northeast 262 302 8,400 2,143 Climbing Los Center
Fri 04:17:00 PM 36.1869 -114.8584 80° East  Level FlightAware
Fri 04:17:15 PM 36.1956 -115.1728 69° East 293 337 10,600  Level Los Center
Fri 04:18:00 PM 36.1966 -114.6901 93° East  Level FlightAware
Fri 04:18:17 PM 36.1969 -115.0567 89° East 339 390 11,500  Level Los Center
Fri 04:19:20 PM 36.1983 -114.9256 89° East 374 430 13,400 2,064 Climbing Los Center
Fri 04:20:22 PM 36.1989 -114.7842 90° East 383 441 15,800 1,887 Climbing Los Center
Fri 04:21:24 PM 36.1972 -114.6475 91° East 391 450 17,300 1,403 Climbing Los Center
Fri 04:22:26 PM 36.1958 -114.5036 91° East 412 474 18,700 1,452 Climbing Los Center
Fri 04:23:28 PM 36.1933 -114.3561 91° East 424 488 20,300 1,392 Climbing Los Center
Fri 04:24:31 PM 36.1964 -114.2056 89° East 435 501 21,600 1,248 Climbing Los Center
Fri 04:25:33 PM 36.2183 -114.0233 81° East 444 511 22,900 1,258 Climbing Los Center
Fri 04:26:35 PM 36.2372 -113.8678 81° East 453 521 24,200 1,161 Climbing Los Center
Fri 04:27:37 PM 36.2564 -113.7072 82° East 464 534 25,300 968 Climbing Los Center
Fri 04:28:39 PM 36.2747 -113.5464 82° East 467 537 26,200 816 Climbing Los Center
Fri 04:29:42 PM 36.2942 -113.3808 82° East 480 552 27,000 816 Climbing Los Center
Fri 04:30:44 PM 36.3247 -113.1978 78° East 491 565 27,900 919 Climbing Los Center
Fri 04:31:46 PM 36.3786 -113.0422 67° East 493 567 28,900 1,016 Climbing Los Center
Fri 04:32:48 PM 36.4358 -112.8875 65° Northeast 493 567 30,000 1,161 Climbing Los Center
Fri 04:33:50 PM 36.5036 -112.7064 65° Northeast 489 563 31,300 1,065 Climbing Los Center
Fri 04:34:52 PM 36.5583 -112.5542 66° East 487 560 32,200 720 Climbing Los Center
Fri 04:35:55 PM 36.6133 -112.4042 65° Northeast 483 556 32,800 384 Climbing Los Center
Fri 04:36:57 PM 36.6683 -112.2517 66° East 483 556 33,000 97 Climbing Los Center
Fri 04:37:59 PM 36.7236 -112.0994 66° East 483 556 33,000  Level Los Center
Fri 04:39:01 PM 36.7903 -111.9178 65° Northeast 483 556 33,000  Level Los Center
Fri 04:40:03 PM 36.8436 -111.7656 66° East 483 556 33,000  Level Los Center
Fri 04:41:05 PM 36.8978 -111.6136 66° East 483 556 33,000  Level Los Center
Fri 04:42:08 PM 36.9531 -111.4608 66° East 483 556 33,000  Level Los Center
Fri 04:43:10 PM 37.0069 -111.3056 66° East 484 557 33,000  Level Los Center
Fri 04:44:12 PM 37.0733 -111.1219 66° East 485 558 33,000  Level Los Center
Fri 04:45:39 PM 37.1461 -110.9075 67° East 482 555 33,000  Level Denver Center
Fri 04:46:40 PM 37.2000 -110.7522 66° East 483 556 33,000  Level Denver Center
Fri 04:47:42 PM 37.2531 -110.5981 67° East 484 557 33,000  Level Denver Center
Fri 04:48:44 PM 37.3050 -110.4431 67° East 484 557 33,000  Level Denver Center
Fri 04:49:46 PM 37.3594 -110.2875 66° East 485 558 33,000  Level Denver Center
Fri 04:50:48 PM 37.4192 -110.1081 67° East 484 557 33,000  Level Denver Center
Fri 04:51:50 PM 37.4694 -109.9583 67° East 485 558 33,000  Level Denver Center
Fri 04:52:52 PM 37.5278 -109.7828 67° East 485 558 33,000  Level Denver Center
Fri 04:53:54 PM 37.5778 -109.6311 67° East 486 559 33,000  Level Denver Center
Fri 04:54:56 PM 37.6356 -109.4567 67° East 486 559 33,000  Level Denver Center
Fri 04:55:58 PM 37.6683 -109.2947 76° East 495 570 33,000  Level Denver Center
Fri 04:57:00 PM 37.7042 -109.1078 76° East 496 571 33,000  Level Denver Center
Fri 04:58:02 PM 37.7361 -108.9481 76° East 495 570 33,000  Level Denver Center
Fri 04:59:03 PM 37.7731 -108.7606 76° East 495 570 33,000  Level Denver Center
Fri 05:00:05 PM 37.8022 -108.6011 77° East 493 567 33,000  Level Denver Center
Fri 05:01:07 PM 37.8319 -108.4447 76° East 487 560 33,000  Level Denver Center
Fri 05:02:09 PM 37.8681 -108.2581 76° East 485 558 33,000  Level Denver Center
Fri 05:03:11 PM 37.8972 -108.0983 77° East 485 558 33,000  Level Denver Center
Fri 05:04:13 PM 37.9319 -107.9108 77° East 486 559 33,000  Level Denver Center
Fri 05:05:15 PM 37.9614 -107.7492 77° East 487 560 33,000  Level Denver Center
Fri 05:06:17 PM 37.9967 -107.5600 77° East 492 566 33,000  Level Denver Center
Fri 05:07:19 PM 38.0250 -107.3994 77° East 492 566 33,000  Level Denver Center
Fri 05:08:21 PM 38.0589 -107.2108 77° East 492 566 33,000  Level Denver Center
Fri 05:09:23 PM 38.0850 -107.0608 77° East 491 565 33,000  Level Denver Center
Fri 05:10:25 PM 38.1144 -106.8928 77° East 490 564 33,000  Level Denver Center
Fri 05:11:27 PM 38.1481 -106.7014 77° East 490 564 33,000  Level Denver Center
Fri 05:12:29 PM 38.1800 -106.5122 78° East 490 564 33,000  Level Denver Center
Fri 05:13:31 PM 38.2069 -106.3547 78° East 489 563 33,000  Level Denver Center
Fri 05:14:33 PM 38.2392 -106.1667 78° East 488 562 33,000  Level Denver Center
Fri 05:15:35 PM 38.2672 -105.9950 78° East 488 562 33,000  Level Denver Center
Fri 05:16:37 PM 38.2939 -105.8342 78° East 488 562 33,000  Level Denver Center
Fri 05:17:39 PM 38.3256 -105.6447 78° East 488 562 33,000  Level Denver Center
Fri 05:18:41 PM 38.3503 -105.4950 78° East 488 562 33,000  Level Denver Center
Fri 05:19:43 PM 38.3825 -105.2906 79° East 490 564 33,000  Level Denver Center
Fri 05:20:45 PM 38.4094 -105.1219 78° East 491 565 33,000  Level Denver Center
Fri 05:21:47 PM 38.4364 -104.9506 79° East 493 567 33,000  Level Denver Center
Fri 05:22:49 PM 38.4636 -104.7806 78° East 493 567 33,000  Level Denver Center
Fri 05:23:51 PM 38.4900 -104.6081 79° East 493 567 33,000  Level Denver Center
Fri 05:24:53 PM 38.5164 -104.4364 79° East 494 568 33,000  Level Denver Center
Fri 05:25:55 PM 38.5481 -104.2303 79° East 495 570 33,000  Level Denver Center
Fri 05:26:57 PM 38.5742 -104.0539 79° East 491 565 33,000  Level Denver Center
Fri 05:27:59 PM 38.5986 -103.8869 79° East 492 566 33,000  Level Denver Center
Fri 05:29:01 PM 38.6267 -103.6931 79° East 493 567 33,000  Level Denver Center
Fri 05:30:04 PM 38.6497 -103.5283 80° East 493 567 33,000  Level Denver Center
Fri 05:31:06 PM 38.6772 -103.3406 79° East 493 567 33,000  Level Denver Center
Fri 05:32:08 PM 38.7006 -103.1689 80° East 492 566 33,000  Level Denver Center
Fri 05:33:10 PM 38.7244 -102.9981 80° East 492 566 33,000 48 Level Denver Center
Fri 05:34:12 PM 38.7489 -102.8267 80° East 492 566 33,100  Climbing Denver Center
Fri 05:35:14 PM 38.7728 -102.6442 80° East 490 564 33,000 -48 Descending Denver Center
Fri 05:36:16 PM 38.7989 -102.4536 80° East 487 560 33,000 -48 Level Denver Center
Fri 05:37:19 PM 38.8200 -102.2914 80° East 486 559 32,900  Descending Denver Center
Fri 05:38:20 PM 38.8458 -102.0994 80° East 486 559 33,000 98 Climbing Denver Center
Fri 05:39:22 PM 38.8672 -101.9350 80° East 486 559 33,100 48 Climbing Denver Center
Fri 05:40:24 PM 38.8914 -101.7439 81° East 486 559 33,100 -48 Level Denver Center
Fri 05:41:26 PM 38.9122 -101.5792 81° East 487 560 33,000 -48 Descending Denver Center
Fri 05:42:28 PM 38.9331 -101.4167 81° East 485 558 33,000  Level Denver Center
Fri 05:43:30 PM 38.9564 -101.2275 81° East 482 555 33,000  Level Denver Center
Fri 05:44:32 PM 38.9764 -101.0653 81° East 479 551 33,000  Level Denver Center
Fri 05:45:35 PM 38.9992 -100.8772 81° East 479 551 33,000  Level Denver Center
Fri 05:46:37 PM 39.0181 -100.7158 81° East 478 550 33,000  Level Denver Center
Fri 05:47:38 PM 39.0347 -100.5825 81° East 478 550 33,000  Level Denver Center
Fri 05:48:53 PM 39.0583 -100.3669 82° East 477 549 33,000  Level Denver Center
Fri 05:49:55 PM 39.0836 -100.1492 81° East 479 551 33,000  Level Denver Center
Fri 05:50:57 PM 39.1031 -99.9828 81° East 482 555 33,000 48 Level Denver Center
Fri 05:51:59 PM 39.1242 -99.7894 82° East 486 559 33,100  Climbing Denver Center
Fri 05:53:01 PM 39.1428 -99.6275 82° East 483 556 33,000 -48 Descending Denver Center
Fri 05:54:03 PM 39.1619 -99.4367 83° East 482 555 33,000  Level Denver Center
Fri 05:55:05 PM 39.1797 -99.2761 82° East 478 550 33,000  Level Denver Center
Fri 05:56:07 PM 39.1989 -99.0886 82° East 479 551 33,000  Level Denver Center
Fri 05:57:15 PM 39.2172 -98.9075 82° East 481 554 33,000  Level Kansas Center
Fri 05:58:19 PM 39.2344 -98.7333 83° East 480 552 33,000  Level Kansas Center
Fri 05:59:20 PM 39.2544 -98.5403 82° East 481 554 33,000  Level Kansas Center
Fri 06:00:21 PM 39.2719 -98.3589 83° East 481 554 33,000  Level Kansas Center
Fri 06:01:25 PM 39.2889 -98.1856 83° East 481 554 33,000  Level Kansas Center
Fri 06:02:26 PM 39.3033 -98.0236 83° East 477 549 33,000  Level Kansas Center
Fri 06:03:30 PM 39.3203 -97.8489 83° East 477 549 33,000  Level Kansas Center
Fri 06:04:31 PM 39.3367 -97.6775 83° East 479 551 33,000  Level Kansas Center
Fri 06:05:32 PM 39.3544 -97.4800 83° East 479 551 33,000  Level Kansas Center
Fri 06:06:36 PM 39.3689 -97.3175 83° East 478 550 33,000  Level Kansas Center
Fri 06:07:36 PM 39.3836 -97.1539 83° East 478 550 33,000  Level Kansas Center
Fri 06:08:40 PM 39.4003 -96.9619 84° East 478 550 33,000  Level Kansas Center
Fri 06:09:42 PM 39.4133 -96.7981 84° East 479 551 33,000  Level Kansas Center
Fri 06:10:42 PM 39.4286 -96.6081 84° East 478 550 33,000  Level Kansas Center
Fri 06:11:45 PM 39.4419 -96.4506 84° East 478 550 33,000  Level Kansas Center
Fri 06:12:49 PM 39.4581 -96.2542 84° East 477 549 33,000  Level Kansas Center
Fri 06:13:49 PM 39.4708 -96.0894 84° East 477 549 33,000  Level Kansas Center
Fri 06:14:53 PM 39.4856 -95.8978 84° East 478 550 33,000  Level Kansas Center
Fri 06:15:55 PM 39.4975 -95.7317 85° East 479 551 33,000  Level Kansas Center
Fri 06:16:55 PM 39.5122 -95.5378 84° East 481 554 33,000  Level Kansas Center
Fri 06:17:59 PM 39.5244 -95.3658 85° East 480 552 33,000  Level Kansas Center
Fri 06:19:00 PM 39.5375 -95.1847 85° East 481 554 33,000  Level Kansas Center
Fri 06:20:01 PM 39.5486 -95.0081 85° East 481 554 33,000  Level Kansas Center
Fri 06:21:03 PM 39.5603 -94.8403 85° East 483 556 33,000  Level Kansas Center
Fri 06:22:07 PM 39.5733 -94.6442 85° East 484 557 33,000  Level Kansas Center
Fri 06:23:08 PM 39.5842 -94.4756 85° East 486 559 33,000  Level Kansas Center
Fri 06:24:12 PM 39.5975 -94.2808 85° East 486 559 33,000  Level Kansas Center
Fri 06:25:13 PM 39.6075 -94.1139 86° East 486 559 33,000  Level Kansas Center
Fri 06:26:14 PM 39.6175 -93.9475 85° East 485 558 33,000  Level Kansas Center
Fri 06:27:17 PM 39.6289 -93.7533 86° East 485 558 33,000  Level Kansas Center
Fri 06:28:18 PM 39.6369 -93.5956 86° East 484 557 33,000  Level Kansas Center
Fri 06:29:20 PM 39.6489 -93.3892 86° East 484 557 33,000  Level Kansas Center
Fri 06:30:23 PM 39.6589 -93.2189 86° East 483 556 33,000  Level Kansas Center
Fri 06:31:24 PM 39.6669 -93.0431 87° East 487 560 33,000  Level Kansas Center
Fri 06:32:27 PM 39.6753 -92.8669 86° East 490 564 33,000  Level Kansas Center
Fri 06:33:27 PM 39.6861 -92.6589 86° East 489 563 33,000  Level Kansas Center
Fri 06:34:31 PM 39.6936 -92.4847 87° East 490 564 33,000  Level Kansas Center
Fri 06:35:32 PM 39.7017 -92.3086 87° East 490 564 33,000  Level Kansas Center
Fri 06:36:36 PM 39.7083 -92.1344 87° East 490 564 33,000  Level Kansas Center
Fri 06:37:37 PM 39.7156 -91.9578 87° East 491 565 33,000  Level Kansas Center
Fri 06:38:40 PM 39.7244 -91.7444 87° East 494 568 33,000  Level Kansas Center
Fri 06:39:41 PM 39.7314 -91.5658 87° East 497 572 33,000  Level Kansas Center
Fri 06:40:42 PM 39.7381 -91.3864 87° East 499 574 33,000  Level Kansas Center
Fri 06:41:46 PM 39.7456 -91.2106 87° East 501 577 33,000  Level Kansas Center
Fri 06:42:47 PM 39.7522 -90.9931 88° East 502 578 33,000  Level Kansas Center
Fri 06:43:50 PM 39.7586 -90.8339 87° East 502 578 33,000  Level Kansas Center
Fri 06:44:51 PM 39.7653 -90.6147 88° East 503 579 33,000  Level Kansas Center
Fri 06:45:55 PM 39.7697 -90.4331 88° East 504 580 33,000  Level Kansas Center
Fri 06:46:56 PM 39.7750 -90.2514 88° East 504 580 33,000  Level Kansas Center
Fri 06:47:57 PM 39.7792 -90.0708 88° East 504 580 33,000  Level Kansas Center
Fri 06:49:01 PM 39.7842 -89.8908 88° East 504 580 33,000  Level Kansas Center
Fri 06:50:02 PM 39.7878 -89.7111 88° East 504 580 33,000  Level Kansas Center
Fri 06:51:05 PM 39.7922 -89.4975 88° East 501 577 33,000  Level Kansas Center
Fri 06:52:06 PM 39.7964 -89.3178 88° East 500 575 33,000  Level Kansas Center
Fri 06:53:09 PM 39.8000 -89.1386 88° East 500 575 33,000  Level Kansas Center
Fri 06:54:09 PM 39.8028 -88.9597 89° East 499 574 33,000  Level Kansas Center
Fri 06:55:13 PM 39.8058 -88.7789 89° East 499 574 33,000  Level Kansas Center
Fri 06:56:13 PM 39.8081 -88.5628 89° East 500 575 33,000  Level Kansas Center
Fri 06:57:17 PM 39.8111 -88.3803 89° East 502 578 33,000  Level Kansas Center
Fri 06:58:18 PM 39.8153 -88.1861 88° East 507 583 33,000  Level Kansas Center
Fri 06:59:22 PM 39.8158 -88.0022 90° East 507 583 33,000  Level Kansas Center
Fri 07:00:17 PM 39.8150 -87.8492 90° East 503 579 33,000  Level Indianapolis Center
Fri 07:01:19 PM 39.8161 -87.6664 89° East 504 580 33,000  Level Indianapolis Center
Fri 07:02:21 PM 39.8175 -87.4472 89° East 505 581 33,000  Level Indianapolis Center
Fri 07:03:23 PM 39.8178 -87.2631 90° East 506 582 33,000  Level Indianapolis Center
Fri 07:04:25 PM 39.8175 -87.0794 90° East 507 583 33,000  Level Indianapolis Center
Fri 07:05:27 PM 39.8172 -86.8936 90° East 508 585 33,000  Level Indianapolis Center
Fri 07:06:28 PM 39.8167 -86.7100 90° East 510 587 33,000  Level Indianapolis Center
Fri 07:07:30 PM 39.8156 -86.5233 90° East 510 587 33,000  Level Indianapolis Center
Fri 07:08:32 PM 39.8214 -86.3039 88° East 511 588 33,000  Level Indianapolis Center
Fri 07:09:34 PM 39.8389 -86.1381 82° East 521 600 33,000  Level Indianapolis Center
Fri 07:10:36 PM 39.8581 -85.9500 82° East 523 602 33,000  Level Indianapolis Center
Fri 07:11:37 PM 39.8806 -85.7264 82° East 522 601 33,000  Level Indianapolis Center
Fri 07:12:39 PM 39.8992 -85.5400 83° East 522 601 33,000  Level Indianapolis Center
Fri 07:13:41 PM 39.9172 -85.3547 83° East 521 600 33,000  Level Indianapolis Center
Fri 07:14:43 PM 39.9353 -85.1689 83° East 521 600 33,000 -435 Level Indianapolis Center
Fri 07:15:45 PM 39.9536 -84.9792 83° East 524 603 32,100 -927 Descending Indianapolis Center
Fri 07:16:46 PM 39.9725 -84.7575 84° East 549 632 31,100 -537 Descending Indianapolis Center
Fri 07:17:48 PM 39.9922 -84.5600 83° East 553 636 31,000 -48 Descending Indianapolis Center
Fri 07:18:50 PM 40.0086 -84.3703 84° East 536 617 31,000  Level Indianapolis Center
Fri 07:19:51 PM 40.0253 -84.1772 84° East 536 617 31,000  Level Indianapolis Center
Fri 07:20:53 PM 40.0419 -83.9839 84° East 536 617 31,000  Level Indianapolis Center
Fri 07:21:55 PM 40.0589 -83.7889 83° East 536 617 31,000  Level Indianapolis Center
Fri 07:22:56 PM 40.0747 -83.5925 84° East 536 617 31,000  Level Indianapolis Center
Fri 07:23:58 PM 40.0906 -83.3944 84° East 536 617 31,000  Level Indianapolis Center
Fri 07:25:00 PM 40.1086 -83.1583 84° East 536 617 31,000  Level Indianapolis Center
Fri 07:26:01 PM 40.1228 -82.9644 84° East 536 617 31,000  Level Indianapolis Center
Fri 07:27:03 PM 40.1372 -82.7711 84° East 536 617 31,000  Level Indianapolis Center
Fri 07:28:05 PM 40.1328 -82.5808 92° East 525 604 31,000  Level Indianapolis Center
Fri 07:29:07 PM 40.0956 -82.3992 105° East 521 600 31,000  Level Indianapolis Center
Fri 07:30:08 PM 40.0439 -82.2289 112° Southeast 512 589 31,000  Level Indianapolis Center
Fri 07:31:10 PM 39.9928 -82.0581 111° Southeast 507 583 31,000  Level Indianapolis Center
Fri 07:32:12 PM 39.9419 -81.8867 111° Southeast 507 583 31,000  Level Indianapolis Center
Fri 07:33:14 PM 39.8786 -81.6731 111° Southeast 522 601 31,000  Level Indianapolis Center
Fri 07:34:16 PM 39.8278 -81.4922 110° East 529 609 31,000  Level Indianapolis Center
Fri 07:35:17 PM 39.7786 -81.3156 110° East 530 610 31,000  Level Indianapolis Center
Fri 07:36:19 PM 39.7317 -81.1333 108° East 529 609 31,000  Level Indianapolis Center
Fri 07:37:21 PM 39.6869 -80.9503 108° East 529 609 31,000  Level Indianapolis Center
Fri 07:38:23 PM 39.6417 -80.7672 108° East 529 609 31,000  Level Indianapolis Center
Fri 07:39:25 PM 39.5964 -80.5853 108° East 529 609 31,000  Level Indianapolis Center
Fri 07:40:26 PM 39.5408 -80.3692 108° East 528 608 31,000  Level Indianapolis Center
Fri 07:42:07 PM 39.4647 -80.0778 109° East 526 605 31,000  Level Cleveland Center
Fri 07:42:37 PM 39.4494 -80.0047 105° East 528 608 31,000  Level Washington Center
Fri 07:43:37 PM 39.4039 -79.8247 108° East 528 608 31,000  Level Washington Center
Fri 07:44:38 PM 39.3558 -79.6447 109° East 528 608 31,000 -353 Level Washington Center
Fri 07:45:36 PM 39.3117 -79.4653 108° East 528 608 30,300 -1,311 Descending Washington Center
Fri 07:46:37 PM 39.2653 -79.2883 109° East 528 608 28,400 -1,869 Descending Washington Center
Fri 07:47:38 PM 39.2350 -79.1128 103° East 528 608 26,500 -1,866 Descending Washington Center
Fri 07:48:36 PM 39.2211 -78.9433 96° East 502 578 24,700 -1,866 Descending Washington Center
Fri 07:49:37 PM 39.2047 -78.7792 97° East 478 550 22,800 -2,213 Descending Washington Center
Fri 07:50:38 PM 39.1900 -78.6258 97° East 452 520 20,200 -2,218 Descending Washington Center
Fri 07:51:36 PM 39.1747 -78.4806 98° East 430 495 18,400 -1,780 Descending Washington Center
Fri 07:52:36 PM 39.1572 -78.3406 99° East 405 466 16,700 -1,488 Descending Washington Center
Fri 07:53:37 PM 39.1247 -78.2111 108° East 385 443 15,400 -1,328 Descending Washington Center
Fri 07:54:38 PM 39.0919 -78.0814 108° East 380 437 14,000 -1,412 Descending Washington Center
Fri 07:55:36 PM 39.0592 -77.9547 108° East 380 437 12,600 -1,412 Descending Washington Center
Fri 07:56:37 PM 39.0261 -77.8253 108° East 351 404 11,200 -1,230 Descending Washington Center
Fri 07:57:38 PM 38.9969 -77.7097 108° East 346 398 10,100 -1,190 Descending Washington Center
Fri 07:58:38 PM 38.9694 -77.6047 109° East 325 374 8,800 -978 Descending Washington Center
Fri 07:59:53 PM 38.9667 -77.4833 92° East 290 334 7,900 -1,064 Descending Potomac TRACON
Fri 08:00:59 PM 39.0000 -77.3833 67° East 262 302 6,300 -1,438 Descending Potomac TRACON
Fri 08:01:54 PM 39.0000 -77.3000 90° East 262 302 5,000 -1,140 Descending Potomac TRACON
Fri 08:03:00 PM 39.0000 -77.2000 90° East 217 250 4,000 -1,143 Descending Potomac TRACON
Fri 08:04:00 PM 38.9667 -77.1500 131° Southeast 193 222 2,600 -1,148 Descending Potomac TRACON
Fri 08:04:55 PM 38.9333 -77.1167 142° Southeast 144 166 1,800 -783 Descending Potomac TRACON
Fri 08:05:55 PM 38.9000 -77.0833 142° Southeast 145 167 1,100 -700 Descending Potomac TRACON
Fri 08:06:55 PM 38.8833 -77.0500 123° Southeast 140 161 400 -700 Descending Potomac TRACON

Login

Don't have an account? Register now (free) for customized features, flight alerts, and more!